createdAt,value
2022-11-18T00:00:11.332Z,23.48
2022-11-18T00:01:11.347Z,23.38
2022-11-18T00:02:11.428Z,23.38
2022-11-18T00:03:11.340Z,23.48
2022-11-18T00:04:11.333Z,23.38
2022-11-18T00:05:11.340Z,23.48
2022-11-18T00:06:11.331Z,23.77
2022-11-18T00:07:11.477Z,23.77
2022-11-18T00:08:11.351Z,23.58
2022-11-18T00:09:11.338Z,23.68
2022-11-18T00:10:11.333Z,23.77
2022-11-18T00:11:11.337Z,23.77
2022-11-18T00:12:11.331Z,23.48
2022-11-18T00:13:11.339Z,23.77
2022-11-18T00:14:11.330Z,23.38
2022-11-18T00:15:11.336Z,23.48
2022-11-18T00:16:11.331Z,23.68
2022-11-18T00:17:11.338Z,23.68
2022-11-18T00:18:11.329Z,23.58
2022-11-18T00:19:11.345Z,23.58
2022-11-18T00:20:11.329Z,23.58
2022-11-18T00:21:11.341Z,23.68
2022-11-18T00:22:11.336Z,23.58
2022-11-18T00:23:11.342Z,23.58
2022-11-18T00:24:11.355Z,23.48
2022-11-18T00:25:11.338Z,23.58
2022-11-18T00:26:11.331Z,23.58
2022-11-18T00:27:11.335Z,23.58
2022-11-18T00:28:11.327Z,23.77
2022-11-18T00:29:11.340Z,23.58
2022-11-18T00:30:11.329Z,23.68
2022-11-18T00:31:11.338Z,23.68
2022-11-18T00:32:11.329Z,23.77
2022-11-18T00:33:11.337Z,23.87
2022-11-18T00:34:11.329Z,23.68
2022-11-18T00:35:11.334Z,23.96
2022-11-18T00:36:11.329Z,23.87
2022-11-18T00:37:11.335Z,24.06
2022-11-18T00:38:11.334Z,23.87
2022-11-18T00:39:11.334Z,23.87
2022-11-18T00:40:11.355Z,23.77
2022-11-18T00:41:11.334Z,23.68
2022-11-18T00:42:11.327Z,23.87
2022-11-18T00:43:11.333Z,23.77
2022-11-18T00:44:11.327Z,23.77
2022-11-18T00:45:11.337Z,23.87
2022-11-18T00:46:11.332Z,23.87
2022-11-18T00:47:11.333Z,23.96
2022-11-18T00:48:11.327Z,24.06
2022-11-18T00:49:11.334Z,23.77
2022-11-18T00:50:11.328Z,23.96
2022-11-18T00:51:11.350Z,23.77
2022-11-18T00:52:11.328Z,23.87
2022-11-18T00:53:11.335Z,23.96
2022-11-18T00:54:11.335Z,23.87
2022-11-18T00:55:11.337Z,23.87
2022-11-18T00:56:11.358Z,23.87
2022-11-18T00:57:11.334Z,23.96
2022-11-18T00:58:11.328Z,23.96
2022-11-18T00:59:11.334Z,24.06
2022-11-18T01:00:11.325Z,23.96
2022-11-18T01:01:11.396Z,23.87
2022-11-18T01:02:11.327Z,23.58
2022-11-18T01:03:11.334Z,24.16
2022-11-18T01:04:11.326Z,24.26
2022-11-18T01:05:11.334Z,24.16
2022-11-18T01:06:11.328Z,24.35
2022-11-18T01:07:11.427Z,23.68
2022-11-18T01:08:11.328Z,24.16
2022-11-18T01:09:11.333Z,23.77
2022-11-18T01:10:11.328Z,23.87
2022-11-18T01:11:11.332Z,23.96
2022-11-18T01:12:11.344Z,23.87
2022-11-18T01:13:11.333Z,23.87
2022-11-18T01:14:11.331Z,23.87
2022-11-18T01:15:11.334Z,24.26
2022-11-18T01:16:11.327Z,23.68
2022-11-18T01:17:11.340Z,24.26
2022-11-18T01:18:11.326Z,24.26
2022-11-18T01:19:11.458Z,23.68
2022-11-18T01:20:11.328Z,24.26
2022-11-18T01:21:11.331Z,23.58
2022-11-18T01:22:11.324Z,23.77
2022-11-18T01:23:11.337Z,23.87
2022-11-18T01:24:11.327Z,23.96
2022-11-18T01:25:11.334Z,23.96
2022-11-18T01:26:11.325Z,23.87
2022-11-18T01:27:11.331Z,23.96
2022-11-18T01:28:11.344Z,23.96
2022-11-18T01:29:11.332Z,23.68
2022-11-18T01:30:11.324Z,24.16
2022-11-18T01:31:11.331Z,23.77
2022-11-18T01:32:25.772Z,23.87
2022-11-18T01:33:11.330Z,23.77
2022-11-18T01:34:11.324Z,23.87
2022-11-18T01:35:11.340Z,24.06
2022-11-18T01:36:11.324Z,23.87
2022-11-18T01:37:11.331Z,23.87
2022-11-18T01:38:11.322Z,24.06
2022-11-18T01:39:11.330Z,23.87
2022-11-18T01:40:11.322Z,23.96
2022-11-18T01:41:11.333Z,23.96
2022-11-18T01:42:11.322Z,23.96
2022-11-18T01:43:11.330Z,23.96
2022-11-18T01:44:11.349Z,23.87
2022-11-18T01:45:11.336Z,24.06
2022-11-18T01:46:11.323Z,23.87
2022-11-18T01:47:11.330Z,23.96
2022-11-18T01:48:11.320Z,23.87
2022-11-18T01:49:11.336Z,24.06
2022-11-18T01:50:11.321Z,24.06
2022-11-18T01:51:11.328Z,24.06
2022-11-18T01:52:11.325Z,23.96
2022-11-18T01:53:11.329Z,23.96
2022-11-18T01:54:11.326Z,23.96
2022-11-18T01:55:11.345Z,23.87
2022-11-18T01:56:11.320Z,24.06
2022-11-18T01:57:11.327Z,23.87
2022-11-18T01:58:11.321Z,24.06
2022-11-18T01:59:11.365Z,23.87
2022-11-18T02:00:11.347Z,23.96
2022-11-18T02:01:11.380Z,23.87
2022-11-18T02:02:11.320Z,23.87
2022-11-18T02:03:11.326Z,23.68
2022-11-18T02:04:11.320Z,23.68
2022-11-18T02:05:11.327Z,23.58
2022-11-18T02:06:11.323Z,23.68
2022-11-18T02:07:11.421Z,23.58
2022-11-18T02:08:11.319Z,23.68
2022-11-18T02:09:11.327Z,23.77
2022-11-18T02:10:11.474Z,23.96
2022-11-18T02:11:11.327Z,23.77
2022-11-18T02:12:11.399Z,23.87
2022-11-18T02:13:11.328Z,23.48
2022-11-18T02:14:11.319Z,23.58
2022-11-18T02:15:11.325Z,23.77
2022-11-18T02:16:11.393Z,23.58
2022-11-18T02:17:11.329Z,23.77
2022-11-18T02:18:11.318Z,23.58
2022-11-18T02:19:11.324Z,23.68
2022-11-18T02:20:11.318Z,23.68
2022-11-18T02:21:11.326Z,23.48
2022-11-18T02:22:11.318Z,23.58
2022-11-18T02:23:11.330Z,23.58
2022-11-18T02:24:11.319Z,23.68
2022-11-18T02:25:11.324Z,23.68
2022-11-18T02:26:11.317Z,23.77
2022-11-18T02:27:11.324Z,23.68
2022-11-18T02:28:11.319Z,23.58
2022-11-18T02:29:11.326Z,23.58
2022-11-18T02:30:11.317Z,23.48
2022-11-18T02:31:11.324Z,23.68
2022-11-18T02:32:11.337Z,23.68
2022-11-18T02:33:11.328Z,23.38
2022-11-18T02:34:11.318Z,23.48
2022-11-18T02:35:11.323Z,23.38
2022-11-18T02:36:11.316Z,23.77
2022-11-18T02:37:11.324Z,23.48
2022-11-18T02:38:11.317Z,23.58
2022-11-18T02:39:11.324Z,23.77
2022-11-18T02:40:11.340Z,23.48
2022-11-18T02:41:11.323Z,23.77
2022-11-18T02:42:11.317Z,23.48
2022-11-18T02:43:11.326Z,23.58
2022-11-18T02:44:11.317Z,23.48
2022-11-18T02:45:11.324Z,23.68
2022-11-18T02:46:11.314Z,23.68
2022-11-18T02:47:11.322Z,23.58
2022-11-18T02:48:11.395Z,23.09
2022-11-18T02:49:11.322Z,23.58
2022-11-18T02:50:11.316Z,23.58
2022-11-18T02:51:11.322Z,23.19
2022-11-18T02:52:11.318Z,23.58
2022-11-18T02:53:11.323Z,23.48
2022-11-18T02:54:11.316Z,23.38
2022-11-18T02:55:11.322Z,23.38
2022-11-18T02:56:11.314Z,23.58
2022-11-18T02:57:11.331Z,23.38
2022-11-18T02:58:11.314Z,23.38
2022-11-18T02:59:11.321Z,23.58
2022-11-18T03:00:11.314Z,23.58
2022-11-18T03:01:11.442Z,23.48
2022-11-18T03:02:11.316Z,23.58
2022-11-18T03:03:11.321Z,23.38
2022-11-18T03:04:11.339Z,23.58
2022-11-18T03:05:11.320Z,23.38
2022-11-18T03:06:11.313Z,23.48
2022-11-18T03:07:11.372Z,23.28
2022-11-18T03:08:11.312Z,23.19
2022-11-18T03:09:11.319Z,23.28
2022-11-18T03:10:11.462Z,23.19
2022-11-18T03:11:11.318Z,23.38
2022-11-18T03:12:11.350Z,23.28
2022-11-18T03:13:11.319Z,23.19
2022-11-18T03:14:11.312Z,23.38
2022-11-18T03:15:11.319Z,23.58
2022-11-18T03:16:11.313Z,23.38
2022-11-18T03:17:11.319Z,23.38
2022-11-18T03:18:11.311Z,23.28
2022-11-18T03:19:11.322Z,23.38
2022-11-18T03:20:11.448Z,23.28
2022-11-18T03:21:11.321Z,23.48
2022-11-18T03:22:11.310Z,23.48
2022-11-18T03:23:11.318Z,23.28
2022-11-18T03:24:11.311Z,23.19
2022-11-18T03:25:11.318Z,23.19
2022-11-18T03:26:11.313Z,23.38
2022-11-18T03:27:11.318Z,23.09
2022-11-18T03:28:11.309Z,23.38
2022-11-18T03:29:11.317Z,23.38
2022-11-18T03:30:11.309Z,23.19
2022-11-18T03:31:11.317Z,23.19
2022-11-18T03:32:11.309Z,23.19
2022-11-18T03:33:11.317Z,23.48
2022-11-18T03:34:11.309Z,22.99
2022-11-18T03:35:11.315Z,23.19
2022-11-18T03:36:11.329Z,23.28
2022-11-18T03:37:11.321Z,23.19
2022-11-18T03:38:11.309Z,23.09
2022-11-18T03:39:11.316Z,23.09
2022-11-18T03:40:11.309Z,22.99
2022-11-18T03:41:11.315Z,23.09
2022-11-18T03:42:11.310Z,23.09
2022-11-18T03:43:11.318Z,22.99
2022-11-18T03:44:11.307Z,23.19
2022-11-18T03:45:11.316Z,23.09
2022-11-18T03:46:11.311Z,23.19
2022-11-18T03:47:11.315Z,23.19
2022-11-18T03:48:11.307Z,23.09
2022-11-18T03:49:11.314Z,22.99
2022-11-18T03:50:11.307Z,23.28
2022-11-18T03:51:11.315Z,23.09
2022-11-18T03:52:11.326Z,23.09
2022-11-18T03:53:11.318Z,22.99
2022-11-18T03:54:11.307Z,23.19
2022-11-18T03:55:11.383Z,22.99
2022-11-18T03:56:17.006Z,23.09
2022-11-18T03:57:11.307Z,23.28
2022-11-18T03:58:11.323Z,23.19
2022-11-18T03:59:11.313Z,23.09
2022-11-18T04:00:11.314Z,22.99
2022-11-18T04:01:11.306Z,23.19
2022-11-18T04:02:11.417Z,23.09
2022-11-18T04:03:11.306Z,22.99
2022-11-18T04:04:11.312Z,23.09
2022-11-18T04:05:11.306Z,23.09
2022-11-18T04:06:11.313Z,23.09
2022-11-18T04:07:11.377Z,22.99
2022-11-18T04:08:11.338Z,22.99
2022-11-18T04:09:11.304Z,23.09
2022-11-18T04:10:11.312Z,23.19
2022-11-18T04:11:11.304Z,23.09
2022-11-18T04:12:11.311Z,22.90
2022-11-18T04:13:11.304Z,22.99
2022-11-18T04:14:11.312Z,22.90
2022-11-18T04:15:11.304Z,22.99
2022-11-18T04:16:11.310Z,22.99
2022-11-18T04:17:11.305Z,22.99
2022-11-18T04:18:11.312Z,22.99
2022-11-18T04:19:11.302Z,22.90
2022-11-18T04:20:11.326Z,22.90
2022-11-18T04:21:11.306Z,22.99
2022-11-18T04:22:11.311Z,22.99
2022-11-18T04:23:11.307Z,22.90
2022-11-18T04:24:11.334Z,22.90
2022-11-18T04:25:11.306Z,22.99
2022-11-18T04:26:11.309Z,22.90
2022-11-18T04:27:11.303Z,23.09
2022-11-18T04:28:11.308Z,22.90
2022-11-18T04:29:11.301Z,22.90
2022-11-18T04:30:11.309Z,22.90
2022-11-18T04:31:11.302Z,22.90
2022-11-18T04:32:11.308Z,22.80
2022-11-18T04:33:11.301Z,22.80
2022-11-18T04:34:11.308Z,22.90
2022-11-18T04:35:11.300Z,22.99
2022-11-18T04:36:11.307Z,22.90
2022-11-18T04:37:11.302Z,22.99
2022-11-18T04:38:11.307Z,22.99
2022-11-18T04:39:11.300Z,22.90
2022-11-18T04:40:11.336Z,22.80
2022-11-18T04:41:11.300Z,22.80
2022-11-18T04:42:11.307Z,22.99
2022-11-18T04:43:11.302Z,22.90
2022-11-18T04:44:11.308Z,22.99
2022-11-18T04:45:11.299Z,22.90
2022-11-18T04:46:11.309Z,22.90
2022-11-18T04:47:11.298Z,22.90
2022-11-18T04:48:11.306Z,22.80
2022-11-18T04:49:11.299Z,22.90
2022-11-18T04:50:11.306Z,22.99
2022-11-18T04:51:11.297Z,22.90
2022-11-18T04:52:11.305Z,22.80
2022-11-18T04:53:11.298Z,22.90
2022-11-18T04:54:11.309Z,22.90
2022-11-18T04:55:11.296Z,22.90
2022-11-18T04:56:11.334Z,22.80
2022-11-18T04:57:11.298Z,22.80
2022-11-18T04:58:11.304Z,22.80
2022-11-18T04:59:11.296Z,22.90
2022-11-18T05:00:11.304Z,22.90
2022-11-18T05:01:11.358Z,22.90
2022-11-18T05:02:11.305Z,22.90
2022-11-18T05:03:11.295Z,22.90
2022-11-18T05:04:11.303Z,22.90
2022-11-18T05:05:11.296Z,22.90
2022-11-18T05:06:11.303Z,22.99
2022-11-18T05:07:11.353Z,22.99
2022-11-18T05:08:11.307Z,22.99
2022-11-18T05:09:11.295Z,22.71
2022-11-18T05:10:11.452Z,22.71
2022-11-18T05:11:11.295Z,22.90
2022-11-18T05:12:11.321Z,22.90
2022-11-18T05:13:11.296Z,22.90
2022-11-18T05:14:11.303Z,22.80
2022-11-18T05:15:11.294Z,22.90
2022-11-18T05:16:11.302Z,22.99
2022-11-18T05:17:11.294Z,22.90
2022-11-18T05:18:11.302Z,22.99
2022-11-18T05:19:11.295Z,22.90
2022-11-18T05:20:11.303Z,22.80
2022-11-18T05:21:11.294Z,22.90
2022-11-18T05:22:11.312Z,22.80
2022-11-18T05:23:11.293Z,22.80
2022-11-18T05:24:11.338Z,22.80
2022-11-18T05:25:11.306Z,22.99
2022-11-18T05:26:11.304Z,22.99
2022-11-18T05:27:11.299Z,22.80
2022-11-18T05:28:11.326Z,22.71
2022-11-18T05:29:11.295Z,22.90
2022-11-18T05:30:11.305Z,22.80
2022-11-18T05:31:11.305Z,22.99
2022-11-18T05:32:11.309Z,22.71
2022-11-18T05:33:11.298Z,22.71
2022-11-18T05:34:11.301Z,22.61
2022-11-18T05:35:11.302Z,22.71
2022-11-18T05:36:11.298Z,22.71
2022-11-18T05:37:11.293Z,22.61
2022-11-18T05:38:11.298Z,22.61
2022-11-18T05:39:11.290Z,22.71
2022-11-18T05:40:11.302Z,22.71
2022-11-18T05:41:11.290Z,22.71
2022-11-18T05:42:11.300Z,22.61
2022-11-18T05:43:11.288Z,22.61
2022-11-18T05:44:11.318Z,22.71
2022-11-18T05:45:11.289Z,22.61
2022-11-18T05:46:11.296Z,22.71
2022-11-18T05:47:11.294Z,22.71
2022-11-18T05:48:11.296Z,22.71
2022-11-18T05:49:11.288Z,22.71
2022-11-18T05:50:11.296Z,22.71
2022-11-18T05:51:11.288Z,22.71
2022-11-18T05:52:11.298Z,22.71
2022-11-18T05:53:11.287Z,22.80
2022-11-18T05:54:11.296Z,22.71
2022-11-18T05:55:11.287Z,22.80
2022-11-18T05:56:11.296Z,22.61
2022-11-18T05:57:11.287Z,22.71
2022-11-18T05:58:11.295Z,22.71
2022-11-18T05:59:11.287Z,22.71
2022-11-18T06:00:11.321Z,22.71
2022-11-18T06:01:11.288Z,22.71
2022-11-18T06:02:11.293Z,22.71
2022-11-18T06:03:11.340Z,22.80
2022-11-18T06:04:11.293Z,22.71
2022-11-18T06:05:11.287Z,22.80
2022-11-18T06:06:11.293Z,22.71
2022-11-18T06:07:11.306Z,22.71
2022-11-18T06:08:11.293Z,22.71
2022-11-18T06:09:11.285Z,22.80
2022-11-18T06:10:11.293Z,22.80
2022-11-18T06:11:11.285Z,23.87
2022-11-18T06:12:11.292Z,22.99
2022-11-18T06:13:11.285Z,22.61
2022-11-18T06:14:11.292Z,22.71
2022-11-18T06:15:11.284Z,22.80
2022-11-18T06:16:11.326Z,22.71
2022-11-18T06:17:11.286Z,22.71
2022-11-18T06:18:11.292Z,22.80
2022-11-18T06:19:11.283Z,22.71
2022-11-18T06:20:11.291Z,22.80
2022-11-18T06:21:11.283Z,22.90
2022-11-18T06:22:11.291Z,22.61
2022-11-18T06:23:11.282Z,22.51
2022-11-18T06:24:11.291Z,22.31
2022-11-18T06:25:11.283Z,22.22
2022-11-18T06:26:11.291Z,22.31
2022-11-18T06:27:11.282Z,22.02
2022-11-18T06:28:11.291Z,22.02
2022-11-18T06:29:11.283Z,22.12
2022-11-18T06:30:11.290Z,22.02
2022-11-18T06:31:11.282Z,22.02
2022-11-18T06:32:11.312Z,21.83
2022-11-18T06:33:11.284Z,22.02
2022-11-18T06:34:11.290Z,21.73
2022-11-18T06:35:11.281Z,21.83
2022-11-18T06:36:11.289Z,21.83
2022-11-18T06:37:11.282Z,21.73
2022-11-18T06:38:11.297Z,21.64
2022-11-18T06:39:11.281Z,21.64
2022-11-18T06:40:11.291Z,21.44
2022-11-18T06:41:11.283Z,21.34
2022-11-18T06:42:11.289Z,21.54
2022-11-18T06:43:11.281Z,21.44
2022-11-18T06:44:11.289Z,21.34
2022-11-18T06:45:11.341Z,21.44
2022-11-18T06:46:11.288Z,21.05
2022-11-18T06:47:11.281Z,21.54
2022-11-18T06:48:11.308Z,21.34
2022-11-18T06:49:11.281Z,21.16
2022-11-18T06:50:11.288Z,21.15
2022-11-18T06:51:11.281Z,21.05
2022-11-18T06:52:11.288Z,21.25
2022-11-18T06:53:11.280Z,20.86
2022-11-18T06:54:11.409Z,20.86
2022-11-18T06:55:11.279Z,21.25
2022-11-18T06:56:11.288Z,23.38
2022-11-18T06:57:11.280Z,22.71
2022-11-18T06:58:11.287Z,21.75
2022-11-18T06:59:11.284Z,21.06
2022-11-18T07:00:11.286Z,21.15
2022-11-18T07:01:11.519Z,21.15
2022-11-18T07:02:11.287Z,21.15
2022-11-18T07:03:11.279Z,20.96
2022-11-18T07:04:11.307Z,21.05
2022-11-18T07:05:11.279Z,20.97
2022-11-18T07:06:11.287Z,20.87
2022-11-18T07:07:11.389Z,20.86
2022-11-18T07:08:11.286Z,20.87
2022-11-18T07:09:11.279Z,20.97
2022-11-18T07:10:11.286Z,20.87
2022-11-18T07:11:11.279Z,20.87
2022-11-18T07:12:11.289Z,20.97
2022-11-18T07:13:11.281Z,20.97
2022-11-18T07:14:11.285Z,20.97
2022-11-18T07:15:11.278Z,20.87
2022-11-18T07:16:11.286Z,20.97
2022-11-18T07:17:11.281Z,20.87
2022-11-18T07:18:11.287Z,20.77
2022-11-18T07:19:11.279Z,20.58
2022-11-18T07:20:11.306Z,20.77
2022-11-18T07:21:11.279Z,20.77
2022-11-18T07:22:11.287Z,20.58
2022-11-18T07:23:11.280Z,20.87
2022-11-18T07:24:11.287Z,20.87
2022-11-18T07:25:11.280Z,20.77
2022-11-18T07:26:11.298Z,20.77
2022-11-18T07:27:11.278Z,20.87
2022-11-18T07:28:11.290Z,20.77
2022-11-18T07:29:11.280Z,20.77
2022-11-18T07:30:11.287Z,20.68
2022-11-18T07:31:11.280Z,20.87
2022-11-18T07:32:11.286Z,20.77
2022-11-18T07:33:11.283Z,20.87
2022-11-18T07:34:11.291Z,20.68
2022-11-18T07:35:11.281Z,20.77
2022-11-18T07:36:11.318Z,20.68
2022-11-18T07:37:11.279Z,20.77
2022-11-18T07:38:11.286Z,20.68
2022-11-18T07:39:11.279Z,20.87
2022-11-18T07:40:11.288Z,20.77
2022-11-18T07:41:11.280Z,20.87
2022-11-18T07:42:11.287Z,20.77
2022-11-18T07:43:11.288Z,20.87
2022-11-18T07:44:11.288Z,20.68
2022-11-18T07:45:11.280Z,20.97
2022-11-18T07:46:11.288Z,20.97
2022-11-18T07:47:11.278Z,20.97
2022-11-18T07:48:11.287Z,20.97
2022-11-18T07:49:11.281Z,20.87
2022-11-18T07:50:11.289Z,20.97
2022-11-18T07:51:11.282Z,20.97
2022-11-18T07:52:11.312Z,21.06
2022-11-18T07:53:11.280Z,21.16
2022-11-18T07:54:11.289Z,21.16
2022-11-18T07:55:11.282Z,21.06
2022-11-18T07:56:11.295Z,21.06
2022-11-18T07:57:11.284Z,21.06
2022-11-18T07:58:11.287Z,21.16
2022-11-18T07:59:11.279Z,21.16
2022-11-18T08:00:11.288Z,21.16
2022-11-18T08:01:11.365Z,21.16
2022-11-18T08:02:11.287Z,21.06
2022-11-18T08:03:14.417Z,21.26
2022-11-18T08:04:11.294Z,21.36
2022-11-18T08:05:17.549Z,20.97
2022-11-18T08:06:11.289Z,21.45
2022-11-18T08:07:11.331Z,21.16
2022-11-18T08:08:11.341Z,21.45
2022-11-18T08:09:11.279Z,21.26
2022-11-18T08:10:11.388Z,21.26
2022-11-18T08:11:11.279Z,21.26
2022-11-18T08:12:11.287Z,21.55
2022-11-18T08:13:11.287Z,21.16
2022-11-18T08:14:11.280Z,21.26
2022-11-18T08:15:11.287Z,21.16
2022-11-18T08:16:11.281Z,21.16
2022-11-18T08:17:11.287Z,21.54
2022-11-18T08:18:13.898Z,21.64
2022-11-18T08:19:11.286Z,21.45
2022-11-18T08:20:11.280Z,21.44
2022-11-18T08:21:11.286Z,21.54
2022-11-18T08:22:11.279Z,21.44
2022-11-18T08:23:11.286Z,21.54
2022-11-18T08:24:11.313Z,21.34
2022-11-18T08:25:11.287Z,21.54
2022-11-18T08:26:11.282Z,21.34
2022-11-18T08:27:11.285Z,21.34
2022-11-18T08:28:11.310Z,21.44
2022-11-18T08:29:11.289Z,21.34
2022-11-18T08:30:11.286Z,21.44
2022-11-18T08:31:11.288Z,21.64
2022-11-18T08:32:11.279Z,21.34
2022-11-18T08:33:11.288Z,21.34
2022-11-18T08:34:11.279Z,21.64
2022-11-18T08:35:11.609Z,21.44
2022-11-18T08:36:11.278Z,21.54
2022-11-18T08:37:11.285Z,21.64
2022-11-18T08:38:11.281Z,21.44
2022-11-18T08:39:11.284Z,21.44
2022-11-18T08:40:11.304Z,21.44
2022-11-18T08:41:11.286Z,21.54
2022-11-18T08:42:11.278Z,21.64
2022-11-18T08:43:11.286Z,21.54
2022-11-18T08:44:11.277Z,21.64
2022-11-18T08:45:11.287Z,21.54
2022-11-18T08:46:11.276Z,21.64
2022-11-18T08:47:11.284Z,21.54
2022-11-18T08:48:11.278Z,21.54
2022-11-18T08:49:11.285Z,21.64
2022-11-18T08:50:11.277Z,21.44
2022-11-18T08:51:11.286Z,21.44
2022-11-18T08:52:11.276Z,21.44
2022-11-18T08:53:11.286Z,21.44
2022-11-18T08:54:11.281Z,21.44
2022-11-18T08:55:11.283Z,21.73
2022-11-18T08:56:11.304Z,21.83
2022-11-18T08:57:11.284Z,21.54
2022-11-18T08:58:11.276Z,21.44
2022-11-18T08:59:11.283Z,21.64
2022-11-18T09:00:11.275Z,21.64
2022-11-18T09:01:11.344Z,21.64
2022-11-18T09:02:11.340Z,21.73
2022-11-18T09:03:11.283Z,21.64
2022-11-18T09:04:11.275Z,21.64
2022-11-18T09:05:11.283Z,21.64
2022-11-18T09:06:11.277Z,21.73
2022-11-18T09:07:11.319Z,21.64
2022-11-18T09:08:11.275Z,21.73
2022-11-18T09:09:11.282Z,21.83
2022-11-18T09:10:11.276Z,21.54
2022-11-18T09:11:11.282Z,21.83
2022-11-18T09:12:11.301Z,21.54
2022-11-18T09:13:40.494Z,21.83
2022-11-18T09:15:14.237Z,21.54
2022-11-18T09:16:11.276Z,21.73
2022-11-18T09:17:11.281Z,21.73
2022-11-18T09:18:11.275Z,21.54
2022-11-18T09:19:45.607Z,21.54
2022-11-18T09:20:11.276Z,21.64
2022-11-18T09:21:11.283Z,21.54
2022-11-18T09:22:11.274Z,21.73
2022-11-18T09:23:11.290Z,21.93
2022-11-18T09:24:11.274Z,21.83
2022-11-18T09:25:11.282Z,21.54
2022-11-18T09:26:11.274Z,21.64
2022-11-18T09:27:16.711Z,21.83
2022-11-18T09:28:11.395Z,21.54
2022-11-18T09:29:11.281Z,21.73
2022-11-18T09:30:11.274Z,21.54
2022-11-18T09:31:11.280Z,21.83
2022-11-18T09:32:11.273Z,21.64
2022-11-18T09:33:11.280Z,21.93
2022-11-18T09:34:11.275Z,21.64
2022-11-18T09:35:11.280Z,21.64
2022-11-18T09:36:11.302Z,21.64
2022-11-18T09:37:11.281Z,21.64
2022-11-18T09:38:11.272Z,21.64
2022-11-18T09:39:11.280Z,21.64
2022-11-18T09:40:11.274Z,21.83
2022-11-18T09:41:11.280Z,21.73
2022-11-18T09:42:11.273Z,21.73
2022-11-18T09:43:11.280Z,21.64
2022-11-18T09:44:11.295Z,21.83
2022-11-18T09:45:14.033Z,21.73
2022-11-18T09:46:11.273Z,21.64
2022-11-18T09:47:11.281Z,21.64
2022-11-18T09:48:11.272Z,21.64
2022-11-18T09:49:11.279Z,21.83
2022-11-18T09:50:41.851Z,21.83
2022-11-18T09:51:11.279Z,21.64
2022-11-18T09:52:11.271Z,21.64
2022-11-18T09:53:11.287Z,21.73
2022-11-18T09:54:11.271Z,21.64
2022-11-18T09:55:11.278Z,21.64
2022-11-18T09:56:11.344Z,21.73
2022-11-18T09:57:11.279Z,21.83
2022-11-18T09:58:11.271Z,21.64
2022-11-18T09:59:11.278Z,21.73
2022-11-18T10:00:11.305Z,21.64
2022-11-18T10:01:11.328Z,21.73
2022-11-18T10:02:11.325Z,21.73
2022-11-18T10:03:11.278Z,21.83
2022-11-18T10:04:11.271Z,21.64
2022-11-18T10:05:11.277Z,21.64
2022-11-18T10:06:11.271Z,21.64
2022-11-18T10:07:11.311Z,21.83
2022-11-18T10:08:11.272Z,21.64
2022-11-18T10:09:11.292Z,21.55
2022-11-18T10:10:11.421Z,21.54
2022-11-18T10:11:11.278Z,21.84
2022-11-18T10:12:11.270Z,21.64
2022-11-18T10:13:11.277Z,21.64
2022-11-18T10:14:11.270Z,21.64
2022-11-18T10:15:11.279Z,21.64
2022-11-18T10:16:11.304Z,21.64
2022-11-18T10:17:11.283Z,21.64
2022-11-18T10:18:11.276Z,21.64
2022-11-18T10:19:11.276Z,21.83
2022-11-18T10:20:11.279Z,21.73
2022-11-18T10:21:11.277Z,21.73
2022-11-18T10:22:18.065Z,21.83
2022-11-18T10:23:11.276Z,21.73
2022-11-18T10:24:11.273Z,21.83
2022-11-18T10:25:11.276Z,21.75
2022-11-18T10:26:11.270Z,21.44
2022-11-18T10:27:11.279Z,21.55
2022-11-18T10:28:11.271Z,21.64
2022-11-18T10:29:11.277Z,21.83
2022-11-18T10:30:11.272Z,21.34
2022-11-18T10:31:11.275Z,21.54
2022-11-18T10:32:11.292Z,21.54
2022-11-18T10:33:11.277Z,21.65
2022-11-18T10:34:11.270Z,21.65
2022-11-18T10:35:11.276Z,21.54
2022-11-18T10:36:11.269Z,21.65
2022-11-18T10:37:11.277Z,21.54
2022-11-18T10:38:11.268Z,21.34
2022-11-18T10:39:11.280Z,21.45
2022-11-18T10:40:11.268Z,21.34
2022-11-18T10:41:11.277Z,21.44
2022-11-18T10:42:11.269Z,21.55
2022-11-18T10:43:11.279Z,21.54
2022-11-18T10:44:12.349Z,21.54
2022-11-18T10:45:11.276Z,21.54
2022-11-18T10:46:11.269Z,21.54
2022-11-18T10:47:11.275Z,21.54
2022-11-18T10:48:11.296Z,21.54
2022-11-18T10:49:11.297Z,21.55
2022-11-18T10:50:11.269Z,21.65
2022-11-18T10:51:11.274Z,21.65
2022-11-18T10:52:11.269Z,21.44
2022-11-18T10:53:11.276Z,21.54
2022-11-18T10:54:11.272Z,21.54
2022-11-18T10:55:11.276Z,21.75
2022-11-18T10:56:11.267Z,21.54
2022-11-18T10:57:11.277Z,21.64
2022-11-18T10:58:11.318Z,21.54
2022-11-18T10:59:11.275Z,21.45
2022-11-18T11:00:11.319Z,21.54
2022-11-18T11:01:11.325Z,21.65
2022-11-18T11:02:11.348Z,21.45
2022-11-18T11:03:11.276Z,21.65
2022-11-18T11:04:11.302Z,21.45
2022-11-18T11:05:11.275Z,21.44
2022-11-18T11:06:11.270Z,21.65
2022-11-18T11:07:11.297Z,21.45
2022-11-18T11:08:35.195Z,21.64
2022-11-18T11:09:11.281Z,21.45
2022-11-18T11:10:11.268Z,21.54
2022-11-18T11:11:11.274Z,21.73
2022-11-18T11:12:11.266Z,21.44
2022-11-18T11:13:11.274Z,21.64
2022-11-18T11:14:11.267Z,21.55
2022-11-18T11:15:11.279Z,21.45
2022-11-18T11:16:11.268Z,21.65
2022-11-18T11:17:11.368Z,21.54
2022-11-18T11:18:11.271Z,21.65
2022-11-18T11:19:11.274Z,21.45
2022-11-18T11:20:11.286Z,21.36
2022-11-18T11:21:11.276Z,21.45
2022-11-18T11:22:11.267Z,21.45
2022-11-18T11:23:11.274Z,21.65
2022-11-18T11:24:11.267Z,21.16
2022-11-18T11:25:11.277Z,21.26
2022-11-18T11:28:14.446Z,21.06
2022-11-18T11:29:11.275Z,21.26
2022-11-18T11:30:11.267Z,20.97
2022-11-18T11:31:11.273Z,21.16
2022-11-18T11:32:11.266Z,20.97
2022-11-18T11:33:11.274Z,20.97
2022-11-18T11:34:11.267Z,20.97
2022-11-18T11:35:11.273Z,20.97
2022-11-18T11:36:11.287Z,20.87
2022-11-18T11:37:11.273Z,20.77
2022-11-18T11:38:11.268Z,20.77
2022-11-18T11:39:11.273Z,21.16
2022-11-18T11:40:11.266Z,20.87
2022-11-18T11:41:11.274Z,21.16
2022-11-18T11:42:11.266Z,20.48
2022-11-18T11:43:11.278Z,20.58
2022-11-18T11:44:11.266Z,20.58
2022-11-18T11:45:11.277Z,20.48
2022-11-18T11:46:11.267Z,20.68
2022-11-18T11:47:11.274Z,20.68
2022-11-18T11:48:11.266Z,20.87
2022-11-18T11:49:11.274Z,20.97
2022-11-18T11:50:11.267Z,20.68
2022-11-18T11:51:11.274Z,20.68
2022-11-18T11:52:11.286Z,20.39
2022-11-18T11:53:11.274Z,20.48
2022-11-18T11:54:11.267Z,20.88
2022-11-18T11:55:11.274Z,20.77
2022-11-18T11:56:11.268Z,20.87
2022-11-18T11:57:11.275Z,20.88
2022-11-18T11:58:11.269Z,20.97
2022-11-18T11:59:11.275Z,20.58
2022-11-18T12:00:11.272Z,20.88
2022-11-18T12:01:11.277Z,20.59
2022-11-18T12:02:11.269Z,20.49
2022-11-18T12:03:11.355Z,20.39
2022-11-18T12:04:11.270Z,20.20
2022-11-18T12:05:11.278Z,20.39
2022-11-18T12:06:11.270Z,20.49
2022-11-18T12:07:11.322Z,20.20
2022-11-18T12:08:11.291Z,20.20
2022-11-18T12:09:11.278Z,20.01
2022-11-18T12:10:11.271Z,20.20
2022-11-18T12:11:11.278Z,20.10
2022-11-18T12:12:11.271Z,20.10
2022-11-18T12:13:11.280Z,20.10
2022-11-18T12:14:11.273Z,20.20
2022-11-18T12:15:11.280Z,20.10
2022-11-18T12:16:11.272Z,20.20
2022-11-18T12:17:11.280Z,20.20
2022-11-18T12:18:11.276Z,20.20
2022-11-18T12:19:11.285Z,20.20
2022-11-18T12:20:11.273Z,20.20
2022-11-18T12:21:11.282Z,20.20
2022-11-18T12:22:11.278Z,20.20
2022-11-18T12:23:11.281Z,20.10
2022-11-18T12:24:11.302Z,20.10
2022-11-18T12:25:11.284Z,20.20
2022-11-18T12:26:11.277Z,20.10
2022-11-18T12:27:11.283Z,20.10
2022-11-18T12:28:11.277Z,20.10
2022-11-18T12:29:11.279Z,20.10
2022-11-18T12:30:11.287Z,20.10
2022-11-18T12:31:11.277Z,20.11
2022-11-18T12:32:11.285Z,20.10
2022-11-18T12:33:11.280Z,20.10
2022-11-18T12:34:11.286Z,20.10
2022-11-18T12:35:11.278Z,20.10
2022-11-18T12:36:11.288Z,20.10
2022-11-18T12:37:11.280Z,20.10
2022-11-18T12:38:11.287Z,20.10
2022-11-18T12:39:11.280Z,20.11
2022-11-18T12:40:11.316Z,20.01
2022-11-18T12:41:11.282Z,20.20
2022-11-18T12:42:11.290Z,20.10
2022-11-18T12:43:11.281Z,20.10
2022-11-18T12:44:11.291Z,20.10
2022-11-18T12:45:11.283Z,20.01
2022-11-18T12:46:11.290Z,20.10
2022-11-18T12:47:11.282Z,20.10
2022-11-18T12:48:11.295Z,20.20
2022-11-18T12:49:11.283Z,20.11
2022-11-18T12:50:11.304Z,20.21
2022-11-18T12:51:11.286Z,20.11
2022-11-18T12:52:11.292Z,20.21
2022-11-18T12:53:11.286Z,20.11
2022-11-18T12:54:13.891Z,20.20
2022-11-18T12:55:11.286Z,20.20